Weather at Kiryat Shmona Airport

Public forecast

Using degrees Celsius for public forecast. Weather courtesy of forecast.io.

Closest aviation weather report (METAR) to Kiryat Shmona Airport

Closest report is Ben Ya'akov Airport, 14.2 nm (26.3 km) S. Retrieved 2022/01/17 09:50 UTC (41 minutes ago):

LLIB 170950Z AUTO 13004KT 080V180 9999 FEW050 09/M08 Q1021

Closest aviation forecast (TAF) to Kiryat Shmona Airport

Closest forecast is Ben Ya'akov Airport, 14.2 nm (26.3 km) S. Retrieved 2022/01/17 06:15 UTC (4 hours ago):

TAF LLIB 170511Z 1706/1806 33006KT CAVOK BECMG 1707/1709 18006KT BECMG 1711/1713 35006KT BECMG 1716/1718 VRB04KT TX11/1712Z TN01/1802Z